createdAt,value
2017-04-27T00:00:04.512Z,1009.56
2017-04-27T00:01:14.455Z,1009.59
2017-04-27T00:02:24.714Z,1009.6
2017-04-27T00:03:34.653Z,1009.61
2017-04-27T00:04:44.914Z,1009.59
2017-04-27T00:05:55.169Z,1009.61
2017-04-27T00:07:05.433Z,1009.6
2017-04-27T00:08:15.064Z,1009.62
2017-04-27T00:09:25.009Z,1009.59
2017-04-27T00:10:35.260Z,1009.58
2017-04-27T00:11:45.519Z,1009.57
2017-04-27T00:12:55.462Z,1009.58
2017-04-27T00:14:05.709Z,1009.59
2017-04-27T00:15:15.962Z,1009.58
2017-04-27T00:16:26.226Z,1009.63
2017-04-27T00:17:36.176Z,1009.57
2017-04-27T00:18:46.430Z,1009.57
2017-04-27T00:19:56.693Z,1009.59
2017-04-27T00:21:06.634Z,1009.56
2017-04-27T00:22:16.582Z,1009.53
2017-04-27T00:23:26.842Z,1009.54
2017-04-27T00:24:36.785Z,1009.54
2017-04-27T00:25:46.727Z,1009.54
2017-04-27T00:26:56.673Z,1009.55
2017-04-27T00:28:06.931Z,1009.55
2017-04-27T00:29:16.876Z,1009.52
2017-04-27T00:30:27.131Z,1009.52
2017-04-27T00:31:37.069Z,1009.53
2017-04-27T00:32:46.698Z,1009.53
2017-04-27T00:33:56.952Z,1009.51
2017-04-27T00:35:06.897Z,1009.49
2017-04-27T00:36:17.157Z,1009.51
2017-04-27T00:37:27.413Z,1009.51
2017-04-27T00:38:37.676Z,1009.52
2017-04-27T00:39:47.960Z,1009.51
2017-04-27T00:40:58.211Z,1009.48
2017-04-27T00:42:08.466Z,1009.49
2017-04-27T00:43:18.406Z,1009.48
2017-04-27T00:44:28.660Z,1009.47
2017-04-27T00:45:38.603Z,1009.47
2017-04-27T00:46:48.237Z,1009.46
2017-04-27T00:47:58.500Z,1009.5
2017-04-27T00:49:08.766Z,1009.53
2017-04-27T00:50:19.026Z,1009.5
2017-04-27T00:51:28.964Z,1009.51
2017-04-27T00:52:38.912Z,1009.51
2017-04-27T00:53:49.171Z,1009.52
2017-04-27T00:54:59.460Z,1009.49
2017-04-27T00:56:09.399Z,1009.5
2017-04-27T00:57:19.026Z,1009.48
2017-04-27T00:58:28.999Z,1009.51
2017-04-27T00:59:38.977Z,1009.51
2017-04-27T01:00:48.929Z,1009.49
2017-04-27T01:01:59.188Z,1009.51
2017-04-27T01:03:09.131Z,1009.54
2017-04-27T01:04:19.077Z,1009.55
2017-04-27T01:05:29.027Z,1009.58
2017-04-27T01:06:39.283Z,1009.56
2017-04-27T01:07:49.545Z,1009.6
2017-04-27T01:08:59.494Z,1009.56
2017-04-27T01:10:09.444Z,1009.57
2017-04-27T01:11:19.075Z,1009.58
2017-04-27T01:12:29.333Z,1009.57
2017-04-27T01:13:39.593Z,1009.59
2017-04-27T01:14:49.867Z,1009.56
2017-04-27T01:16:00.128Z,1009.61
2017-04-27T01:17:09.751Z,1009.58
2017-04-27T01:18:19.074Z,1009.57
2017-04-27T01:19:29.329Z,1009.53
2017-04-27T01:20:39.584Z,1009.56
2017-04-27T01:21:49.532Z,1009.51
2017-04-27T01:22:59.171Z,1009.52
2017-04-27T01:24:09.437Z,1009.54
2017-04-27T01:25:19.068Z,1009.53
2017-04-27T01:26:29.331Z,1009.53
2017-04-27T01:27:39.283Z,1009.54
2017-04-27T01:28:49.236Z,1009.56
2017-04-27T01:29:59.183Z,1009.52
2017-04-27T01:31:09.445Z,1009.53
2017-04-27T01:32:19.390Z,1009.53
2017-04-27T01:33:29.339Z,1009.52
2017-04-27T01:34:39.601Z,1009.53
2017-04-27T01:35:49.864Z,1009.51
2017-04-27T01:37:00.124Z,1009.55
2017-04-27T01:38:10.086Z,1009.53
2017-04-27T01:39:20.031Z,1009.54
2017-04-27T01:40:30.302Z,1009.53
2017-04-27T01:41:40.251Z,1009.52
2017-04-27T01:42:50.508Z,1009.48
2017-04-27T01:44:00.780Z,1009.5
2017-04-27T01:45:11.041Z,1009.49
2017-04-27T01:46:20.985Z,1009.46
2017-04-27T01:47:30.934Z,1009.48
2017-04-27T01:48:40.878Z,1009.42
2017-04-27T01:49:51.139Z,1009.42
2017-04-27T01:51:01.409Z,1009.38
2017-04-27T01:52:11.671Z,1009.4
2017-04-27T01:53:21.303Z,1009.38
2017-04-27T01:54:31.569Z,1009.33
2017-04-27T01:55:41.829Z,1009.35
2017-04-27T01:56:51.775Z,1009.37
2017-04-27T01:58:02.033Z,1009.37
2017-04-27T01:59:12.288Z,1009.35
2017-04-27T02:00:22.541Z,1009.36
2017-04-27T02:01:32.799Z,1009.34
2017-04-27T02:02:42.744Z,1009.31
2017-04-27T02:03:52.691Z,1009.29
2017-04-27T02:05:02.963Z,1009.3
2017-04-27T02:06:12.907Z,1009.29
2017-04-27T02:07:22.854Z,1009.27
2017-04-27T02:08:32.813Z,1009.25
2017-04-27T02:09:43.076Z,1009.24
2017-04-27T02:10:53.342Z,1009.24
2017-04-27T02:12:03.292Z,1009.27
2017-04-27T02:13:13.562Z,1009.22
2017-04-27T02:14:23.203Z,1009.25
2017-04-27T02:15:33.461Z,1009.24
2017-04-27T02:16:43.405Z,1009.21
2017-04-27T02:17:53.660Z,1009.21
2017-04-27T02:19:03.613Z,1009.2
2017-04-27T02:20:13.880Z,1009.21
2017-04-27T02:21:23.511Z,1009.2
2017-04-27T02:22:33.460Z,1009.18
2017-04-27T02:23:43.401Z,1009.15
2017-04-27T02:24:53.671Z,1009.12
2017-04-27T02:26:03.936Z,1009.1
2017-04-27T02:27:14.201Z,1009.1
2017-04-27T02:28:24.482Z,1009.11
2017-04-27T02:29:34.428Z,1009.16
2017-04-27T02:30:44.686Z,1009.11
2017-04-27T02:31:54.943Z,1009.06
2017-04-27T02:33:04.892Z,1009.05
2017-04-27T02:34:14.842Z,1009
2017-04-27T02:35:24.476Z,1008.99
2017-04-27T02:36:34.419Z,1009
2017-04-27T02:37:44.366Z,1009.01
2017-04-27T02:38:54.309Z,1009.05
2017-04-27T02:40:04.571Z,1009.07
2017-04-27T02:41:14.521Z,1009.05
2017-04-27T02:42:24.476Z,1009.09
2017-04-27T02:43:34.743Z,1009.11
2017-04-27T02:44:45.008Z,1009.16
2017-04-27T02:45:54.945Z,1009.21
2017-04-27T02:47:05.200Z,1009.18
2017-04-27T02:48:15.478Z,1009.14
2017-04-27T02:49:25.739Z,1009.08
2017-04-27T02:50:35.685Z,1009.1
2017-04-27T02:51:45.633Z,1009.09
2017-04-27T02:52:55.898Z,1009.14
2017-04-27T02:54:06.166Z,1009.13
2017-04-27T02:55:16.417Z,1009.14
2017-04-27T02:56:26.679Z,1009.18
2017-04-27T02:57:36.943Z,1009.22
2017-04-27T02:58:47.211Z,1009.28
2017-04-27T02:59:57.559Z,1009.26
2017-04-27T03:01:07.887Z,1009.31
2017-04-27T03:02:17.833Z,1009.25
2017-04-27T03:03:27.776Z,1009.22
2017-04-27T03:04:37.723Z,1009.18
2017-04-27T03:05:47.670Z,1009.16
2017-04-27T03:06:57.933Z,1009.22
2017-04-27T03:08:07.878Z,1009.22
2017-04-27T03:09:17.823Z,1009.25
2017-04-27T03:10:28.080Z,1009.28
2017-04-27T03:11:38.336Z,1009.32
2017-04-27T03:12:48.282Z,1009.28
2017-04-27T03:13:58.553Z,1009.2
2017-04-27T03:15:08.815Z,1009.2
2017-04-27T03:16:18.792Z,1009.15
2017-04-27T03:17:28.735Z,1009.19
2017-04-27T03:18:38.684Z,1009.23
2017-04-27T03:19:48.951Z,1009.26
2017-04-27T03:20:59.205Z,1009.24
2017-04-27T03:22:09.152Z,1009.19
2017-04-27T03:23:19.097Z,1009.16
2017-04-27T03:24:29.066Z,1009.14
2017-04-27T03:25:39.322Z,1009.17
2017-04-27T03:26:49.577Z,1009.14
2017-04-27T03:27:59.522Z,1009.15
2017-04-27T03:29:09.153Z,1009.17
2017-04-27T03:30:18.788Z,1009.17
2017-04-27T03:31:28.416Z,1009.25
2017-04-27T03:32:38.364Z,1009.28
2017-04-27T03:33:48.323Z,1009.32
2017-04-27T03:34:58.600Z,1009.28
2017-04-27T03:36:08.227Z,1009.26
2017-04-27T03:37:18.490Z,1009.21
2017-04-27T03:38:28.753Z,1009.22
2017-04-27T03:39:38.698Z,1009.25
2017-04-27T03:40:48.645Z,1009.37
2017-04-27T03:41:58.909Z,1009.38
2017-04-27T03:43:08.850Z,1009.36
2017-04-27T03:44:19.122Z,1009.34
2017-04-27T03:45:29.402Z,1009.3
2017-04-27T03:46:39.662Z,1009.27
2017-04-27T03:47:49.608Z,1009.35
2017-04-27T03:48:59.550Z,1009.36
2017-04-27T03:50:09.500Z,1009.4
2017-04-27T03:51:19.750Z,1009.48
2017-04-27T03:52:29.699Z,1009.48
2017-04-27T03:53:39.329Z,1009.48
2017-04-27T03:54:48.987Z,1009.55
2017-04-27T03:55:58.940Z,1009.52
2017-04-27T03:57:08.564Z,1009.57
2017-04-27T03:58:18.832Z,1009.57
2017-04-27T03:59:29.096Z,1009.56
2017-04-27T04:00:39.034Z,1009.61
2017-04-27T04:01:48.979Z,1009.64
2017-04-27T04:02:59.251Z,1009.65
2017-04-27T04:04:09.195Z,1009.63
2017-04-27T04:05:19.142Z,1009.65
2017-04-27T04:06:29.095Z,1009.62
2017-04-27T04:07:39.357Z,1009.6
2017-04-27T04:08:49.622Z,1009.57
2017-04-27T04:09:59.887Z,1009.59
2017-04-27T04:11:09.825Z,1009.55
2017-04-27T04:12:20.083Z,1009.62
2017-04-27T04:13:30.345Z,1009.64
2017-04-27T04:14:40.610Z,1009.68
2017-04-27T04:15:50.561Z,1009.65
2017-04-27T04:17:00.812Z,1009.7
2017-04-27T04:18:10.440Z,1009.73
2017-04-27T04:19:20.710Z,1009.72
2017-04-27T04:20:30.340Z,1009.72
2017-04-27T04:21:39.969Z,1009.74
2017-04-27T04:22:50.230Z,1009.76
2017-04-27T04:24:00.487Z,1009.82
2017-04-27T04:25:10.441Z,1009.91
2017-04-27T04:26:20.386Z,1009.92
2017-04-27T04:27:30.654Z,1009.95
2017-04-27T04:28:40.957Z,1009.96
2017-04-27T04:29:50.907Z,1009.94
2017-04-27T04:31:01.175Z,1009.98
2017-04-27T04:32:11.118Z,1009.96
2017-04-27T04:33:21.380Z,1010
2017-04-27T04:34:31.339Z,1010.03
2017-04-27T04:35:40.654Z,1010.08
2017-04-27T04:36:50.908Z,1010.05
2017-04-27T04:38:01.164Z,1010.12
2017-04-27T04:39:11.420Z,1010.14
2017-04-27T04:40:21.674Z,1010.16
2017-04-27T04:41:31.938Z,1010.17
2017-04-27T04:42:41.877Z,1010.19
2017-04-27T04:43:51.832Z,1010.19
2017-04-27T04:45:02.086Z,1010.18
2017-04-27T04:46:12.338Z,1010.2
2017-04-27T04:47:22.280Z,1010.2
2017-04-27T04:48:31.916Z,1010.15
2017-04-27T04:49:41.871Z,1010.14
2017-04-27T04:50:51.808Z,1010.1
2017-04-27T04:52:01.754Z,1010.09
2017-04-27T04:53:12.024Z,1010.08
2017-04-27T04:54:22.299Z,1010.09
2017-04-27T04:55:31.930Z,1010.06
2017-04-27T04:56:41.872Z,1010.09
2017-04-27T04:57:51.840Z,1010.11
2017-04-27T04:59:02.104Z,1010.12
2017-04-27T05:00:12.372Z,1010.08
2017-04-27T05:01:22.329Z,1010.07
2017-04-27T05:02:32.587Z,1010.11
2017-04-27T05:03:42.847Z,1010.05
2017-04-27T05:04:53.123Z,1010.08
2017-04-27T05:06:03.070Z,1010.09
2017-04-27T05:07:13.016Z,1010.1
2017-04-27T05:08:23.317Z,1010.1
2017-04-27T05:09:33.268Z,1010.11
2017-04-27T05:10:43.533Z,1010.13
2017-04-27T05:11:53.161Z,1010.18
2017-04-27T05:13:03.416Z,1010.19
2017-04-27T05:14:13.683Z,1010.2
2017-04-27T05:15:23.630Z,1010.26
2017-04-27T05:16:33.568Z,1010.24
2017-04-27T05:17:43.526Z,1010.3
2017-04-27T05:18:53.158Z,1010.3
2017-04-27T05:20:03.132Z,1010.34
2017-04-27T05:21:12.478Z,1010.34
2017-04-27T05:22:22.433Z,1010.35
2017-04-27T05:23:32.371Z,1010.31
2017-04-27T05:24:42.654Z,1010.33
2017-04-27T05:25:52.286Z,1010.39
2017-04-27T05:27:02.226Z,1010.44
2017-04-27T05:28:12.481Z,1010.45
2017-04-27T05:29:22.421Z,1010.5
2017-04-27T05:30:32.360Z,1010.54
2017-04-27T05:31:41.682Z,1010.54
2017-04-27T05:32:51.944Z,1010.54
2017-04-27T05:34:01.892Z,1010.51
2017-04-27T05:35:12.151Z,1010.53
2017-04-27T05:36:22.414Z,1010.55
2017-04-27T05:37:32.355Z,1010.55
2017-04-27T05:38:42.309Z,1010.54
2017-04-27T05:39:52.567Z,1010.48
2017-04-27T05:41:02.518Z,1010.43
2017-04-27T05:42:12.470Z,1010.41
2017-04-27T05:43:22.415Z,1010.36
2017-04-27T05:44:32.381Z,1010.36
2017-04-27T05:45:42.321Z,1010.3
2017-04-27T05:46:52.614Z,1010.3
2017-04-27T05:48:02.550Z,1010.25
2017-04-27T05:49:12.497Z,1010.25
2017-04-27T05:50:22.135Z,1010.27
2017-04-27T05:51:32.396Z,1010.3
2017-04-27T05:52:42.657Z,1010.32
2017-04-27T05:53:52.596Z,1010.32
2017-04-27T05:55:02.857Z,1010.3
2017-04-27T05:56:12.500Z,1010.32
2017-04-27T05:57:22.444Z,1010.31
2017-04-27T05:58:32.704Z,1010.31
2017-04-27T05:59:42.653Z,1010.37
2017-04-27T06:00:52.914Z,1010.4
2017-04-27T06:02:03.175Z,1010.4
2017-04-27T06:03:13.433Z,1010.45
2017-04-27T06:04:23.689Z,1010.49
2017-04-27T06:05:33.943Z,1010.49
2017-04-27T06:06:43.922Z,1010.47
2017-04-27T06:07:53.871Z,1010.46
2017-04-27T06:09:03.820Z,1010.5
2017-04-27T06:10:14.085Z,1010.55
2017-04-27T06:11:24.344Z,1010.53
2017-04-27T06:12:33.662Z,1010.5
2017-04-27T06:13:43.925Z,1010.48
2017-04-27T06:14:54.190Z,1010.48
2017-04-27T06:16:04.453Z,1010.53
2017-04-27T06:17:14.720Z,1010.55
2017-04-27T06:18:24.977Z,1010.56
2017-04-27T06:19:35.240Z,1010.56
2017-04-27T06:20:44.870Z,1010.51
2017-04-27T06:21:55.139Z,1010.44
2017-04-27T06:23:05.400Z,1010.45
2017-04-27T06:24:15.663Z,1010.45
2017-04-27T06:25:25.303Z,1010.48
2017-04-27T06:26:35.560Z,1010.44
2017-04-27T06:27:45.512Z,1010.4
2017-04-27T06:28:55.784Z,1010.32
2017-04-27T06:30:06.048Z,1010.3
2017-04-27T06:31:16.333Z,1010.35
2017-04-27T06:32:26.278Z,1010.41
2017-04-27T06:33:36.539Z,1010.47
2017-04-27T06:34:46.166Z,1010.44
2017-04-27T06:35:56.423Z,1010.44
2017-04-27T06:37:06.367Z,1010.39
2017-04-27T06:38:16.623Z,1010.38
2017-04-27T06:39:26.881Z,1010.44
2017-04-27T06:40:36.825Z,1010.53
2017-04-27T06:41:46.774Z,1010.56
2017-04-27T06:42:57.034Z,1010.52
2017-04-27T06:44:07.296Z,1010.51
2017-04-27T06:45:17.241Z,1010.55
2017-04-27T06:46:27.189Z,1010.54
2017-04-27T06:47:37.125Z,1010.58
2017-04-27T06:48:47.072Z,1010.5
2017-04-27T06:49:57.017Z,1010.5
2017-04-27T06:51:07.283Z,1010.52
2017-04-27T06:52:17.539Z,1010.51
2017-04-27T06:53:27.804Z,1010.54
2017-04-27T06:54:37.762Z,1010.51
2017-04-27T06:55:48.016Z,1010.54
2017-04-27T06:56:57.956Z,1010.54
2017-04-27T06:58:08.217Z,1010.58
2017-04-27T06:59:18.162Z,1010.63
2017-04-27T07:00:28.099Z,1010.67
2017-04-27T07:01:38.372Z,1010.64
2017-04-27T07:02:48.005Z,1010.67
2017-04-27T07:03:57.642Z,1010.69
2017-04-27T07:05:07.583Z,1010.73
2017-04-27T07:06:17.539Z,1010.74
2017-04-27T07:07:27.169Z,1010.71
2017-04-27T07:08:37.437Z,1010.75
2017-04-27T07:09:47.398Z,1010.73
2017-04-27T07:10:57.659Z,1010.76
2017-04-27T07:12:07.605Z,1010.75
2017-04-27T07:13:17.557Z,1010.72
2017-04-27T07:14:27.503Z,1010.73
2017-04-27T07:15:37.767Z,1010.69
2017-04-27T07:16:47.719Z,1010.73
2017-04-27T07:17:57.696Z,1010.78
2017-04-27T07:19:07.325Z,1010.8
2017-04-27T07:20:17.275Z,1010.81
2017-04-27T07:21:27.222Z,1010.82
2017-04-27T07:22:37.483Z,1010.86
2017-04-27T07:23:47.435Z,1010.83
2017-04-27T07:24:57.065Z,1010.85
2017-04-27T07:26:07.323Z,1010.88
2017-04-27T07:27:17.270Z,1010.82
2017-04-27T07:28:27.221Z,1010.81
2017-04-27T07:29:37.177Z,1010.84
2017-04-27T07:30:47.433Z,1010.83
2017-04-27T07:31:57.388Z,1010.84
2017-04-27T07:33:07.639Z,1010.88
2017-04-27T07:34:17.891Z,1010.97
2017-04-27T07:35:27.530Z,1010.99
2017-04-27T07:36:37.785Z,1010.99
2017-04-27T07:37:48.049Z,1010.99
2017-04-27T07:38:57.685Z,1010.92
2017-04-27T07:40:07.948Z,1010.92
2017-04-27T07:41:17.586Z,1010.91
2017-04-27T07:42:27.529Z,1010.88
2017-04-27T07:43:37.169Z,1010.84
2017-04-27T07:44:47.434Z,1010.81
2017-04-27T07:45:57.387Z,1010.82
2017-04-27T07:47:07.339Z,1010.82
2017-04-27T07:48:16.965Z,1010.81
2017-04-27T07:49:25.980Z,1010.82
2017-04-27T07:50:35.923Z,1010.84
2017-04-27T07:51:46.188Z,1010.79
2017-04-27T07:52:56.457Z,1010.76
2017-04-27T07:54:06.404Z,1010.81
2017-04-27T07:55:16.041Z,1010.81
2017-04-27T07:56:25.669Z,1010.84
2017-04-27T07:57:35.929Z,1010.82
2017-04-27T07:58:45.872Z,1010.83
2017-04-27T07:59:56.172Z,1010.76
2017-04-27T08:01:06.132Z,1010.77
2017-04-27T08:02:16.402Z,1010.8
2017-04-27T08:03:26.347Z,1010.88
2017-04-27T08:04:35.977Z,1010.87
2017-04-27T08:05:45.924Z,1010.91
2017-04-27T08:06:56.179Z,1010.93
2017-04-27T08:08:06.119Z,1010.96
2017-04-27T08:09:16.057Z,1010.99
2017-04-27T08:10:26.003Z,1011.04
2017-04-27T08:11:35.947Z,1010.98
2017-04-27T08:12:45.589Z,1010.99
2017-04-27T08:13:55.859Z,1010.93
2017-04-27T08:15:06.117Z,1010.93
2017-04-27T08:16:16.383Z,1010.93
2017-04-27T08:17:26.350Z,1010.96
2017-04-27T08:18:35.664Z,1010.98
2017-04-27T08:19:45.305Z,1010.99
2017-04-27T08:20:55.247Z,1011
2017-04-27T08:22:04.880Z,1011.01
2017-04-27T08:24:40.835Z,1010.97
2017-04-27T08:25:51.099Z,1010.97
2017-04-27T08:27:01.366Z,1011.02
2017-04-27T08:28:11.621Z,1011.06
2017-04-27T08:29:21.568Z,1011.04
2017-04-27T08:30:30.884Z,1011.03
2017-04-27T08:31:40.824Z,1011.04
2017-04-27T08:32:50.448Z,1011.06
2017-04-27T08:34:00.395Z,1011.06
2017-04-27T08:35:10.335Z,1011.08
2017-04-27T08:36:20.281Z,1011.05
2017-04-27T08:37:30.539Z,1011.06
2017-04-27T08:38:40.486Z,1011.11
2017-04-27T08:39:50.429Z,1011.03
2017-04-27T08:41:00.699Z,1011.01
2017-04-27T08:42:10.645Z,1011.02
2017-04-27T08:43:20.282Z,1011
2017-04-27T08:44:30.235Z,1011
2017-04-27T08:45:40.488Z,1010.97
2017-04-27T08:46:50.746Z,1010.99
2017-04-27T08:48:00.996Z,1011
2017-04-27T08:49:11.264Z,1011.03
2017-04-27T08:50:21.214Z,1011.03
2017-04-27T08:51:31.177Z,1011
2017-04-27T08:52:41.439Z,1010.99
2017-04-27T08:53:51.699Z,1011
2017-04-27T08:55:01.646Z,1011.03
2017-04-27T08:56:11.904Z,1011.02
2017-04-27T08:57:21.541Z,1010.97
2017-04-27T08:58:31.799Z,1010.98
2017-04-27T08:59:41.121Z,1011.06
2017-04-27T09:00:50.749Z,1011.04
2017-04-27T09:02:00.063Z,1011.08
2017-04-27T09:03:10.317Z,1011.04
2017-04-27T09:04:20.586Z,1011.04
2017-04-27T09:05:30.212Z,1011.03
2017-04-27T09:06:39.531Z,1011.04
2017-04-27T09:07:49.791Z,1011
2017-04-27T09:09:00.059Z,1011.04
2017-04-27T09:10:10.005Z,1011.01
2017-04-27T09:11:19.944Z,1011.04
2017-04-27T09:12:29.883Z,1011.02
2017-04-27T09:13:40.138Z,1011.01
2017-04-27T09:14:50.400Z,1010.99
2017-04-27T09:16:00.039Z,1010.98
2017-04-27T09:17:10.301Z,1010.98
2017-04-27T09:18:20.556Z,1010.97
2017-04-27T09:19:30.509Z,1010.97
2017-04-27T09:20:40.465Z,1010.99
2017-04-27T09:21:50.731Z,1010.98
2017-04-27T09:23:00.998Z,1011
2017-04-27T09:24:11.263Z,1011.03
2017-04-27T09:25:21.225Z,1011
2017-04-27T09:26:31.167Z,1010.97
2017-04-27T09:27:41.118Z,1010.97
2017-04-27T09:28:51.375Z,1010.94
2017-04-27T09:30:01.638Z,1010.92
2017-04-27T09:31:11.261Z,1010.9
2017-04-27T09:32:21.517Z,1010.96
2017-04-27T09:33:31.466Z,1010.94
2017-04-27T09:34:41.428Z,1010.93
2017-04-27T09:35:51.368Z,1010.92
2017-04-27T09:37:01.628Z,1010.94
2017-04-27T09:38:11.572Z,1010.95
2017-04-27T09:39:21.834Z,1010.97
2017-04-27T09:40:31.473Z,1010.96
2017-04-27T09:41:41.464Z,1010.97
2017-04-27T09:42:51.721Z,1010.93
2017-04-27T09:44:02.001Z,1010.92
2017-04-27T09:45:12.263Z,1010.89
2017-04-27T09:46:22.530Z,1010.9
2017-04-27T09:47:32.482Z,1010.93
2017-04-27T09:48:42.736Z,1010.91
2017-04-27T09:49:52.680Z,1010.9
2017-04-27T09:51:02.000Z,1010.9
2017-04-27T09:52:12.254Z,1010.86
2017-04-27T09:53:22.514Z,1010.89
2017-04-27T09:54:32.794Z,1010.85
2017-04-27T09:55:42.745Z,1010.89
2017-04-27T09:56:52.694Z,1010.85
2017-04-27T09:58:02.949Z,1010.83
2017-04-27T09:59:12.892Z,1010.82
2017-04-27T10:00:22.850Z,1010.79
2017-04-27T10:01:33.113Z,1010.81
2017-04-27T10:02:43.057Z,1010.76
2017-04-27T10:03:53.019Z,1010.77
2017-04-27T10:05:02.683Z,1010.79
2017-04-27T10:06:12.622Z,1010.79
2017-04-27T10:07:21.936Z,1010.79
2017-04-27T10:08:51.401Z,1010.77
2017-04-27T10:10:34.463Z,1010.79
2017-04-27T10:11:44.409Z,1010.73
2017-04-27T10:12:54.705Z,1010.73
2017-04-27T10:14:04.650Z,1010.73
2017-04-27T10:15:14.921Z,1010.74
2017-04-27T10:16:25.178Z,1010.73
2017-04-27T10:17:35.119Z,1010.71
2017-04-27T10:18:44.755Z,1010.76
2017-04-27T10:19:55.017Z,1010.79
2017-04-27T10:21:04.964Z,1010.81
2017-04-27T10:22:14.291Z,1010.81
2017-04-27T10:23:24.549Z,1010.78
2017-04-27T10:24:34.807Z,1010.84
2017-04-27T10:25:45.067Z,1010.8
2017-04-27T10:26:55.011Z,1010.8
2017-04-27T10:28:04.963Z,1010.76
2017-04-27T10:29:14.931Z,1010.79
2017-04-27T10:30:25.212Z,1010.76
2017-04-27T10:31:35.160Z,1010.72
2017-04-27T10:32:45.107Z,1010.69
2017-04-27T10:33:55.370Z,1010.83
2017-04-27T10:35:05.668Z,1010.78
2017-04-27T10:36:15.604Z,1010.79
2017-04-27T10:37:25.233Z,1010.78
2017-04-27T10:38:35.176Z,1010.77
2017-04-27T10:39:45.442Z,1010.77
2017-04-27T10:40:55.699Z,1010.78
2017-04-27T10:42:05.969Z,1010.72
2017-04-27T10:43:16.229Z,1010.72
2017-04-27T10:44:26.495Z,1010.71
2017-04-27T10:45:36.749Z,1010.7
2017-04-27T10:46:46.380Z,1010.68
2017-04-27T10:47:56.360Z,1010.77
2017-04-27T10:49:06.625Z,1010.74
2017-04-27T10:50:16.880Z,1010.74
2017-04-27T10:51:27.136Z,1010.73
2017-04-27T10:52:37.080Z,1010.69
2017-04-27T10:53:47.029Z,1010.73
2017-04-27T10:54:56.974Z,1010.71
2017-04-27T10:56:06.923Z,1010.67
2017-04-27T10:57:16.869Z,1010.66
2017-04-27T10:58:27.127Z,1010.71
2017-04-27T10:59:37.383Z,1010.71
2017-04-27T11:00:47.650Z,1010.67
2017-04-27T11:01:57.914Z,1010.67
2017-04-27T11:03:07.546Z,1010.72
2017-04-27T11:04:17.171Z,1010.69
2017-04-27T11:05:27.116Z,1010.69
2017-04-27T11:06:37.375Z,1010.71
2017-04-27T11:07:47.326Z,1010.69
2017-04-27T11:08:57.586Z,1010.73
2017-04-27T11:10:07.865Z,1010.73
2017-04-27T11:11:17.494Z,1010.75
2017-04-27T11:12:27.448Z,1010.68
2017-04-27T11:13:37.700Z,1010.71
2017-04-27T11:14:47.652Z,1010.68
2017-04-27T11:15:57.606Z,1010.7
2017-04-27T11:17:07.550Z,1010.69
2017-04-27T11:18:17.522Z,1010.73
2017-04-27T11:19:27.785Z,1010.68
2017-04-27T11:20:37.737Z,1010.66
2017-04-27T11:21:47.678Z,1010.65
2017-04-27T11:22:57.309Z,1010.66
2017-04-27T11:24:07.571Z,1010.61
2017-04-27T11:25:17.836Z,1010.71
2017-04-27T11:26:28.098Z,1010.63
2017-04-27T11:27:38.361Z,1010.59
2017-04-27T11:28:48.004Z,1010.57
2017-04-27T11:29:58.275Z,1010.58
2017-04-27T11:31:08.218Z,1010.6
2017-04-27T11:32:17.854Z,1010.59
2017-04-27T11:33:27.174Z,1010.56
2017-04-27T11:34:37.122Z,1010.63
2017-04-27T11:35:47.376Z,1010.62
2017-04-27T11:36:57.007Z,1010.61
2017-04-27T11:38:07.276Z,1010.59
2017-04-27T11:39:17.258Z,1010.63
2017-04-27T11:40:27.209Z,1010.62
2017-04-27T11:41:36.845Z,1010.57
2017-04-27T11:42:46.802Z,1010.62
2017-04-27T11:43:56.434Z,1010.62
2017-04-27T11:45:06.391Z,1010.66
2017-04-27T11:46:16.028Z,1010.67
2017-04-27T11:47:25.973Z,1010.63
2017-04-27T11:48:36.224Z,1010.64
2017-04-27T11:49:46.167Z,1010.64
2017-04-27T11:50:56.109Z,1010.61
2017-04-27T11:52:06.056Z,1010.6
2017-04-27T11:53:16.008Z,1010.61
2017-04-27T11:54:26.260Z,1010.6
2017-04-27T11:55:36.208Z,1010.61
2017-04-27T11:56:46.466Z,1010.64
2017-04-27T11:57:56.416Z,1010.65
2017-04-27T11:59:06.361Z,1010.65
2017-04-27T12:00:15.688Z,1010.64
2017-04-27T12:01:25.959Z,1010.67
2017-04-27T12:02:36.216Z,1010.58
2017-04-27T12:03:46.483Z,1010.57
2017-04-27T12:04:56.432Z,1010.55
2017-04-27T12:06:06.696Z,1010.57
2017-04-27T12:07:16.013Z,1010.58
2017-04-27T12:08:25.956Z,1010.62
2017-04-27T12:09:36.214Z,1010.6
2017-04-27T12:10:45.843Z,1010.62
2017-04-27T12:11:56.103Z,1010.65
2017-04-27T12:13:06.047Z,1010.66
2017-04-27T12:14:15.699Z,1010.77
2017-04-27T12:15:25.964Z,1010.71
2017-04-27T12:16:36.226Z,1010.75
2017-04-27T12:17:46.176Z,1010.69
2017-04-27T12:18:56.137Z,1010.68
2017-04-27T12:20:06.411Z,1010.65
2017-04-27T12:21:15.414Z,1010.66
2017-04-27T12:22:25.680Z,1010.67
2017-04-27T12:23:35.945Z,1010.65
2017-04-27T12:24:45.268Z,1010.65
2017-04-27T12:25:55.208Z,1010.62
2017-04-27T12:27:05.474Z,1010.63
2017-04-27T12:28:15.738Z,1010.62
2017-04-27T12:29:25.374Z,1010.59
2017-04-27T12:30:35.321Z,1010.56
2017-04-27T12:31:45.583Z,1010.54
2017-04-27T12:32:55.844Z,1010.52
2017-04-27T12:34:06.109Z,1010.57
2017-04-27T12:35:16.061Z,1010.56
2017-04-27T12:36:25.696Z,1010.52
2017-04-27T12:37:35.641Z,1010.54
2017-04-27T12:38:45.282Z,1010.59
2017-04-27T12:39:55.231Z,1010.61
2017-04-27T12:41:05.493Z,1010.6
2017-04-27T12:42:15.752Z,1010.59
2017-04-27T12:43:25.704Z,1010.54
2017-04-27T12:44:35.967Z,1010.55
2017-04-27T12:45:46.219Z,1010.61
2017-04-27T12:46:56.476Z,1010.58
2017-04-27T12:48:06.741Z,1010.56
2017-04-27T12:49:16.710Z,1010.56
2017-04-27T12:50:26.986Z,1010.57
2017-04-27T12:51:37.237Z,1010.6
2017-04-27T12:52:47.185Z,1010.58
2017-04-27T12:53:57.136Z,1010.56
2017-04-27T12:55:07.089Z,1010.55
2017-04-27T12:56:17.379Z,1010.55
2017-04-27T12:57:27.651Z,1010.55
2017-04-27T12:58:37.914Z,1010.6
2017-04-27T12:59:47.851Z,1010.56
2017-04-27T13:00:58.113Z,1010.57
2017-04-27T13:02:07.746Z,1010.57
2017-04-27T13:03:17.686Z,1010.56
2017-04-27T13:04:27.953Z,1010.53
2017-04-27T13:05:37.272Z,1010.58
2017-04-27T13:06:48.418Z,1010.53
2017-04-27T13:07:58.681Z,1010.62
2017-04-27T13:09:08.624Z,1010.58
2017-04-27T13:10:18.269Z,1010.55
2017-04-27T13:11:28.529Z,1010.55
2017-04-27T13:12:38.792Z,1010.48
2017-04-27T13:13:48.732Z,1010.48
2017-04-27T13:14:58.672Z,1010.46
2017-04-27T13:16:07.993Z,1010.44
2017-04-27T13:17:17.935Z,1010.44
2017-04-27T13:18:27.888Z,1010.56
2017-04-27T13:19:37.838Z,1010.47
2017-04-27T13:20:47.792Z,1010.47
2017-04-27T13:21:57.767Z,1010.49
2017-04-27T13:23:08.047Z,1010.5
2017-04-27T13:24:17.997Z,1010.45
2017-04-27T13:25:27.943Z,1010.4
2017-04-27T13:26:37.885Z,1010.43
2017-04-27T13:27:47.524Z,1010.5
2017-04-27T13:28:57.162Z,1010.47
2017-04-27T13:30:06.807Z,1010.42
2017-04-27T13:31:17.074Z,1010.47
2017-04-27T13:32:27.022Z,1010.41
2017-04-27T13:33:37.281Z,1010.43
2017-04-27T13:34:47.543Z,1010.42
2017-04-27T13:35:57.811Z,1010.43
2017-04-27T13:37:07.755Z,1010.45
2017-04-27T13:38:17.390Z,1010.41
2017-04-27T13:39:27.650Z,1010.39
2017-04-27T13:40:37.909Z,1010.39
2017-04-27T13:41:48.171Z,1010.36
2017-04-27T13:42:57.809Z,1010.38
2017-04-27T13:44:07.761Z,1010.43
2017-04-27T13:45:17.705Z,1010.38
2017-04-27T13:46:27.970Z,1010.42
2017-04-27T13:47:37.909Z,1010.47
2017-04-27T13:48:47.886Z,1010.46
2017-04-27T13:49:57.844Z,1010.46
2017-04-27T13:51:07.789Z,1010.52
2017-04-27T13:52:17.732Z,1010.49
2017-04-27T13:53:27.681Z,1010.42
2017-04-27T13:54:37.320Z,1010.45
2017-04-27T13:55:47.263Z,1010.45
2017-04-27T13:56:57.521Z,1010.44
2017-04-27T13:58:07.779Z,1010.43
2017-04-27T13:59:17.414Z,1010.5
2017-04-27T14:00:27.359Z,1010.51
2017-04-27T14:01:37.617Z,1010.56
2017-04-27T14:02:47.900Z,1010.55
2017-04-27T14:03:57.857Z,1010.53
2017-04-27T14:05:08.122Z,1010.52
2017-04-27T14:06:17.749Z,1010.52
2017-04-27T14:07:27.693Z,1010.53
2017-04-27T14:08:37.961Z,1010.53
2017-04-27T14:09:47.941Z,1010.53
2017-04-27T14:10:58.201Z,1010.49
2017-04-27T14:12:08.455Z,1010.44